createdAt,value
2019-05-12T00:02:14.276Z,99.90
2019-05-12T00:04:40.350Z,99.90
2019-05-12T00:07:08.717Z,99.90
2019-05-12T00:09:34.895Z,99.90
2019-05-12T00:12:00.986Z,99.90
2019-05-12T00:14:28.229Z,99.90
2019-05-12T00:16:54.694Z,99.90
2019-05-12T00:19:20.787Z,99.90
2019-05-12T00:21:48.308Z,99.90
2019-05-12T00:24:15.053Z,99.90
2019-05-12T00:26:41.487Z,99.90
2019-05-12T00:29:07.810Z,99.90
2019-05-12T00:31:34.113Z,99.90
2019-05-12T00:34:00.240Z,99.90
2019-05-12T00:36:26.377Z,99.90
2019-05-12T00:38:52.445Z,99.90
2019-05-12T00:41:18.515Z,99.90
2019-05-12T00:43:44.742Z,99.90
2019-05-12T00:46:11.182Z,99.90
2019-05-12T00:48:37.620Z,99.90
2019-05-12T00:51:03.812Z,99.90
2019-05-12T00:53:39.686Z,99.90
2019-05-12T00:55:58.049Z,99.90
2019-05-12T00:58:24.259Z,99.90
2019-05-12T01:00:50.496Z,99.90
2019-05-12T01:03:18.674Z,99.90
2019-05-12T01:05:44.666Z,99.90
2019-05-12T01:08:10.813Z,99.90
2019-05-12T01:10:38.847Z,99.90
2019-05-12T01:13:05.372Z,99.90
2019-05-12T01:15:31.498Z,99.90
2019-05-12T01:17:58.526Z,99.90
2019-05-12T01:20:24.969Z,99.90
2019-05-12T01:22:51.121Z,99.90
2019-05-12T01:25:17.687Z,99.90
2019-05-12T01:27:43.906Z,99.90
2019-05-12T01:30:10.431Z,99.90
2019-05-12T01:32:38.484Z,99.90
2019-05-12T01:35:08.103Z,99.90
2019-05-12T01:37:34.489Z,99.90
2019-05-12T01:40:00.560Z,99.90
2019-05-12T01:42:28.718Z,99.90
2019-05-12T01:44:54.653Z,99.90
2019-05-12T01:47:20.766Z,99.90
2019-05-12T01:49:48.762Z,99.90
2019-05-12T01:52:14.958Z,99.90
2019-05-12T01:54:41.018Z,99.90
2019-05-12T01:57:08.087Z,99.90
2019-05-12T01:59:34.420Z,99.90
2019-05-12T02:02:00.493Z,99.90
2019-05-12T02:04:28.695Z,99.90
2019-05-12T02:06:54.985Z,99.90
2019-05-12T02:09:23.032Z,99.90
2019-05-12T02:11:50.004Z,99.90
2019-05-12T02:14:18.125Z,99.90
2019-05-12T02:16:44.261Z,99.90
2019-05-12T02:19:10.350Z,99.90
2019-05-12T02:21:38.240Z,99.90
2019-05-12T02:24:04.499Z,99.90
2019-05-12T02:26:30.698Z,99.90
2019-05-12T02:28:58.553Z,99.90
2019-05-12T02:31:24.929Z,99.90
2019-05-12T02:33:51.054Z,99.90
2019-05-12T02:36:17.101Z,99.90
2019-05-12T02:38:45.282Z,99.90
2019-05-12T02:41:11.291Z,99.90
2019-05-12T02:43:39.447Z,99.90
2019-05-12T02:46:05.567Z,99.90
2019-05-12T02:48:31.675Z,99.90
2019-05-12T02:50:58.096Z,99.90
2019-05-12T02:53:25.160Z,99.90
2019-05-12T02:55:54.202Z,99.90
2019-05-12T02:58:25.385Z,99.90
2019-05-12T03:00:54.780Z,99.90
2019-05-12T03:03:20.269Z,99.90
2019-05-12T03:05:46.736Z,99.90
2019-05-12T03:08:15.351Z,99.90
2019-05-12T03:10:44.703Z,99.90
2019-05-12T03:13:09.050Z,99.90
2019-05-12T03:15:37.447Z,99.90
2019-05-12T03:18:06.179Z,99.90
2019-05-12T03:20:34.651Z,99.90
2019-05-12T03:22:59.266Z,99.90
2019-05-12T03:25:29.881Z,99.90
2019-05-12T03:27:54.514Z,99.90
2019-05-12T03:30:20.979Z,99.90
2019-05-12T03:32:47.852Z,99.90
2019-05-12T03:35:17.551Z,99.90
2019-05-12T03:37:45.261Z,99.90
2019-05-12T03:40:14.197Z,99.90
2019-05-12T03:42:39.194Z,99.90
2019-05-12T03:45:05.617Z,99.90
2019-05-12T03:47:31.713Z,99.90
2019-05-12T03:49:57.903Z,99.90
2019-05-12T03:52:24.513Z,99.90
2019-05-12T03:54:50.890Z,99.90
2019-05-12T03:57:16.966Z,99.90
2019-05-12T03:59:44.936Z,99.90
2019-05-12T04:02:11.048Z,99.90
2019-05-12T04:04:37.128Z,99.90
2019-05-12T04:07:05.126Z,99.90
2019-05-12T04:09:34.648Z,99.90
2019-05-12T04:11:59.219Z,99.90
2019-05-12T04:14:25.517Z,99.90
2019-05-12T04:16:51.669Z,99.90
2019-05-12T04:19:19.721Z,99.90
2019-05-12T04:21:45.909Z,99.90
2019-05-12T04:24:14.301Z,99.90
2019-05-12T04:26:40.137Z,99.90
2019-05-12T04:29:06.226Z,99.90
2019-05-12T04:31:34.867Z,99.90
2019-05-12T04:34:01.121Z,99.90
2019-05-12T04:36:27.682Z,99.90
2019-05-12T04:38:55.654Z,99.90
2019-05-12T04:41:25.626Z,99.90
2019-05-12T04:43:49.759Z,99.90
2019-05-12T04:46:16.005Z,99.90
2019-05-12T04:48:45.004Z,99.90
2019-05-12T04:51:10.156Z,99.90
2019-05-12T04:53:36.231Z,99.90
2019-05-12T04:56:10.751Z,99.90
2019-05-12T04:58:30.387Z,99.90
2019-05-12T05:00:56.445Z,99.90
2019-05-12T05:03:24.749Z,99.90
2019-05-12T05:05:50.472Z,99.90
2019-05-12T05:08:19.662Z,99.90
2019-05-12T05:10:44.586Z,99.90
2019-05-12T05:13:10.732Z,99.90
2019-05-12T05:15:36.799Z,99.90
2019-05-12T05:18:06.288Z,99.90
2019-05-12T05:20:31.005Z,99.90
2019-05-12T05:22:57.135Z,99.90
2019-05-12T05:25:23.736Z,99.90
2019-05-12T05:27:49.993Z,99.90
2019-05-12T05:30:16.179Z,99.90
2019-05-12T05:32:44.263Z,99.90
2019-05-12T05:35:10.612Z,99.90
2019-05-12T05:37:41.311Z,99.90
2019-05-12T05:40:05.180Z,99.90
2019-05-12T05:42:33.388Z,99.90
2019-05-12T05:44:59.254Z,99.90
2019-05-12T05:47:28.796Z,99.90
2019-05-12T05:49:55.015Z,99.90
2019-05-12T05:52:24.545Z,99.90
2019-05-12T05:54:49.077Z,99.90
2019-05-12T05:57:15.168Z,99.90
2019-05-12T05:59:41.263Z,99.90
2019-05-12T06:02:07.640Z,99.90
2019-05-12T06:04:34.283Z,99.90
2019-05-12T06:07:00.503Z,99.90
2019-05-12T06:09:26.595Z,99.90
2019-05-12T06:11:54.161Z,99.90
2019-05-12T06:14:20.438Z,99.90
2019-05-12T06:16:46.547Z,99.90
2019-05-12T06:19:14.098Z,99.90
2019-05-12T06:21:40.352Z,99.90
2019-05-12T06:24:08.617Z,99.90
2019-05-12T06:26:35.782Z,99.90
2019-05-12T06:29:04.220Z,99.90
2019-05-12T06:31:33.377Z,99.90
2019-05-12T06:33:59.530Z,99.90
2019-05-12T06:36:27.314Z,99.90
2019-05-12T06:38:54.205Z,99.90
2019-05-12T06:41:23.656Z,99.90
2019-05-12T06:43:49.998Z,99.90
2019-05-12T06:46:20.655Z,99.90
2019-05-12T06:48:45.546Z,99.90
2019-05-12T06:51:17.013Z,99.90
2019-05-12T06:53:40.127Z,99.90
2019-05-12T06:56:09.368Z,99.90
2019-05-12T06:58:34.545Z,99.90
2019-05-12T07:01:04.423Z,99.90
2019-05-12T07:03:30.835Z,99.90
2019-05-12T07:05:57.308Z,99.90
2019-05-12T07:08:27.417Z,99.90
2019-05-12T07:11:01.565Z,99.90
2019-05-12T07:13:23.352Z,99.90
2019-05-12T07:15:48.147Z,99.90
2019-05-12T07:18:17.762Z,99.90
2019-05-12T07:20:44.343Z,99.90
2019-05-12T07:23:11.086Z,99.90
2019-05-12T07:25:37.860Z,99.90
2019-05-12T07:28:07.653Z,99.90
2019-05-12T07:30:35.041Z,99.90
2019-05-12T07:33:01.456Z,99.90
2019-05-12T07:35:29.004Z,99.90
2019-05-12T07:37:57.089Z,99.90
2019-05-12T07:40:29.973Z,99.90
2019-05-12T07:42:54.724Z,99.90
2019-05-12T07:45:24.959Z,99.90
2019-05-12T07:47:49.347Z,99.90
2019-05-12T07:50:20.072Z,99.90
2019-05-12T07:52:44.322Z,99.90
2019-05-12T07:55:10.648Z,99.00
2019-05-12T07:57:51.707Z,99.30
2019-05-12T08:00:11.510Z,98.70
2019-05-12T08:02:37.126Z,98.70
2019-05-12T08:05:11.151Z,97.70
2019-05-12T08:07:34.897Z,97.80
2019-05-12T08:10:00.962Z,97.30
2019-05-12T08:12:27.146Z,97.00
2019-05-12T08:14:54.174Z,96.60
2019-05-12T08:17:20.574Z,96.30
2019-05-12T08:19:47.001Z,96.70
2019-05-12T08:22:13.650Z,97.10
2019-05-12T08:24:43.262Z,94.80
2019-05-12T08:27:08.213Z,94.70
2019-05-12T08:29:34.382Z,95.20
2019-05-12T08:32:00.602Z,95.70
2019-05-12T08:34:26.832Z,94.70
2019-05-12T08:36:57.863Z,94.50
2019-05-12T08:39:23.631Z,95.10
2019-05-12T08:41:50.463Z,95.80
2019-05-12T08:44:17.590Z,95.30
2019-05-12T08:46:51.970Z,95.00
2019-05-12T08:49:14.425Z,94.60
2019-05-12T08:51:41.359Z,94.10
2019-05-12T08:54:08.284Z,94.10
2019-05-12T08:56:34.707Z,94.50
2019-05-12T08:59:00.849Z,94.90
2019-05-12T09:01:30.791Z,94.90
2019-05-12T09:03:55.020Z,93.70
2019-05-12T09:06:21.311Z,93.20
2019-05-12T09:08:49.167Z,91.60
2019-05-12T09:11:15.865Z,91.90
2019-05-12T09:13:43.436Z,92.50
2019-05-12T09:16:09.856Z,92.70
2019-05-12T09:18:39.278Z,91.80
2019-05-12T09:21:04.314Z,91.30
2019-05-12T09:23:32.819Z,90.00
2019-05-12T09:25:59.120Z,89.80
2019-05-12T09:28:25.385Z,86.70
2019-05-12T09:30:51.643Z,86.10
2019-05-12T09:33:21.588Z,84.30
2019-05-12T09:35:45.883Z,86.70
2019-05-12T09:38:21.273Z,87.70
2019-05-12T09:40:39.924Z,89.60
2019-05-12T09:43:10.455Z,88.70
2019-05-12T09:45:34.477Z,87.70
2019-05-12T09:48:04.873Z,86.20
2019-05-12T09:50:28.605Z,84.70
2019-05-12T09:52:55.574Z,82.10
2019-05-12T09:55:24.763Z,83.40
2019-05-12T09:57:51.053Z,85.60
2019-05-12T10:00:18.062Z,85.00
2019-05-12T10:02:44.251Z,83.10
2019-05-12T10:05:10.855Z,81.90
2019-05-12T10:07:37.302Z,80.00
2019-05-12T10:10:05.343Z,77.10
2019-05-12T10:12:36.572Z,78.50
2019-05-12T10:15:00.375Z,78.80
2019-05-12T10:17:30.175Z,78.40
2019-05-12T10:19:58.072Z,76.10
2019-05-12T10:22:24.550Z,76.20
2019-05-12T10:24:55.933Z,78.10
2019-05-12T10:27:21.045Z,80.40
2019-05-12T10:29:46.669Z,82.90
2019-05-12T10:32:13.421Z,82.40
2019-05-12T10:34:40.468Z,80.80
2019-05-12T10:37:06.664Z,82.00
2019-05-12T10:39:33.494Z,82.00
2019-05-12T10:41:59.994Z,82.20
2019-05-12T10:44:29.927Z,80.60
2019-05-12T10:46:56.238Z,79.00
2019-05-12T10:49:23.358Z,77.80
2019-05-12T10:51:49.503Z,76.60
2019-05-12T10:54:15.916Z,78.80
2019-05-12T10:56:43.836Z,78.80
2019-05-12T10:59:10.105Z,78.30
2019-05-12T11:01:38.435Z,80.30
2019-05-12T11:04:04.418Z,80.30
2019-05-12T11:06:30.485Z,78.80
2019-05-12T11:08:56.645Z,80.70
2019-05-12T11:11:24.216Z,78.20
2019-05-12T11:13:50.390Z,76.00
2019-05-12T11:16:16.982Z,77.10
2019-05-12T11:18:43.681Z,74.50
2019-05-12T11:21:10.157Z,75.50
2019-05-12T11:23:36.266Z,76.30
2019-05-12T11:26:03.883Z,76.10
2019-05-12T11:28:30.583Z,77.30
2019-05-12T11:30:56.768Z,77.00
2019-05-12T11:33:23.824Z,77.80
2019-05-12T11:35:51.109Z,77.50
2019-05-12T11:38:18.329Z,80.20
2019-05-12T11:40:44.497Z,76.70
2019-05-12T11:43:10.718Z,72.60
2019-05-12T11:45:36.952Z,74.10
2019-05-12T11:48:10.116Z,75.10
2019-05-12T11:50:31.656Z,75.80
2019-05-12T11:52:57.757Z,75.20
2019-05-12T11:55:29.351Z,73.90
2019-05-12T11:57:54.343Z,75.90
2019-05-12T12:00:24.065Z,74.70
2019-05-12T12:02:50.398Z,74.40
2019-05-12T12:05:16.576Z,75.70
2019-05-12T12:07:50.659Z,76.80
2019-05-12T12:10:11.109Z,76.30
2019-05-12T12:12:39.529Z,74.90
2019-05-12T12:15:05.746Z,75.00
2019-05-12T12:17:35.091Z,72.50
2019-05-12T12:20:00.105Z,75.00
2019-05-12T12:22:29.696Z,76.10
2019-05-12T12:24:54.407Z,75.60
2019-05-12T12:27:20.546Z,78.60
2019-05-12T12:29:46.668Z,81.10
2019-05-12T12:32:18.541Z,83.50
2019-05-12T12:34:41.089Z,83.50
2019-05-12T12:37:07.282Z,80.90
2019-05-12T12:39:33.346Z,79.90
2019-05-12T12:42:00.721Z,82.00
2019-05-12T12:44:27.091Z,85.40
2019-05-12T12:47:08.814Z,86.50
2019-05-12T12:49:49.537Z,87.10
2019-05-12T12:52:16.552Z,87.70
2019-05-12T12:54:43.888Z,84.30
2019-05-12T12:57:10.239Z,85.80
2019-05-12T12:59:36.438Z,84.00
2019-05-12T13:02:06.809Z,82.20
2019-05-12T13:04:30.836Z,80.30
2019-05-12T13:06:56.981Z,82.10
2019-05-12T13:09:24.700Z,83.60
2019-05-12T13:11:53.587Z,84.00
2019-05-12T13:14:19.200Z,82.50
2019-05-12T13:16:49.462Z,84.30
2019-05-12T13:19:17.091Z,83.70
2019-05-12T13:21:43.791Z,83.80
2019-05-12T13:24:09.636Z,83.30
2019-05-12T13:26:35.811Z,81.80
2019-05-12T13:29:03.925Z,81.70
2019-05-12T13:31:29.848Z,81.90
2019-05-12T13:33:56.588Z,81.00
2019-05-12T13:36:24.183Z,81.40
2019-05-12T13:38:50.544Z,81.80
2019-05-12T13:41:19.972Z,78.60
2019-05-12T13:43:44.965Z,76.80
2019-05-12T13:46:11.174Z,76.10
2019-05-12T13:48:37.304Z,73.50
2019-05-12T13:51:08.436Z,73.20
2019-05-12T13:53:33.518Z,73.20
2019-05-12T13:55:59.674Z,72.70
2019-05-12T13:58:28.280Z,72.10
2019-05-12T14:01:10.461Z,73.60
2019-05-12T14:03:22.125Z,74.80
2019-05-12T14:05:53.024Z,73.90
2019-05-12T14:08:16.344Z,74.70
2019-05-12T14:10:46.953Z,74.90
2019-05-12T14:13:11.250Z,77.30
2019-05-12T14:15:38.591Z,74.40
2019-05-12T14:18:04.875Z,74.50
2019-05-12T14:20:31.097Z,69.30
2019-05-12T14:22:57.308Z,70.80
2019-05-12T14:25:29.864Z,71.60
2019-05-12T14:27:53.547Z,69.20
2019-05-12T14:30:19.824Z,66.00
2019-05-12T14:32:49.231Z,66.60
2019-05-12T14:35:14.263Z,65.00
2019-05-12T14:37:45.682Z,60.60
2019-05-12T14:40:09.068Z,61.90
2019-05-12T14:42:39.777Z,60.80
2019-05-12T14:45:05.467Z,61.90
2019-05-12T14:47:31.548Z,62.20
2019-05-12T14:49:57.766Z,61.90
2019-05-12T14:52:23.980Z,62.20
2019-05-12T14:54:50.172Z,63.20
2019-05-12T14:57:16.366Z,61.60
2019-05-12T14:59:42.658Z,58.50
2019-05-12T15:02:08.790Z,59.30
2019-05-12T15:04:34.919Z,58.50
2019-05-12T15:07:08.013Z,59.00
2019-05-12T15:09:29.454Z,58.70
2019-05-12T15:11:55.631Z,60.20
2019-05-12T15:14:24.502Z,61.30
2019-05-12T15:16:49.874Z,61.10
2019-05-12T15:19:20.742Z,58.90
2019-05-12T15:21:44.165Z,59.60
2019-05-12T15:24:17.001Z,58.50
2019-05-12T15:26:38.325Z,59.10
2019-05-12T15:29:12.977Z,58.50
2019-05-12T15:31:33.725Z,57.70
2019-05-12T15:34:00.065Z,60.50
2019-05-12T15:36:26.123Z,60.00
2019-05-12T15:38:55.535Z,60.00
2019-05-12T15:41:20.312Z,59.30
2019-05-12T15:43:48.913Z,59.60
2019-05-12T15:46:16.393Z,59.30
2019-05-12T15:48:44.510Z,58.60
2019-05-12T15:51:10.727Z,57.40
2019-05-12T15:53:36.986Z,55.70
2019-05-12T15:56:05.657Z,55.80
2019-05-12T15:58:31.117Z,53.50
2019-05-12T16:00:58.081Z,54.60
2019-05-12T16:03:26.570Z,55.70
2019-05-12T16:05:53.445Z,53.10
2019-05-12T16:08:19.825Z,54.20
2019-05-12T16:10:46.255Z,53.30
2019-05-12T16:13:15.517Z,52.60
2019-05-12T16:15:40.434Z,51.30
2019-05-12T16:18:09.967Z,48.30
2019-05-12T16:20:34.648Z,46.70
2019-05-12T16:23:00.727Z,46.30
2019-05-12T16:25:30.713Z,46.00
2019-05-12T16:27:55.119Z,47.10
2019-05-12T16:30:25.940Z,47.40
2019-05-12T16:32:49.619Z,47.00
2019-05-12T16:35:20.222Z,47.10
2019-05-12T16:37:44.386Z,48.20
2019-05-12T16:40:13.420Z,48.80
2019-05-12T16:42:40.742Z,49.60
2019-05-12T16:45:10.101Z,47.50
2019-05-12T16:47:35.869Z,48.00
2019-05-12T16:50:08.480Z,48.10
2019-05-12T16:52:40.644Z,47.80
2019-05-12T16:55:03.529Z,48.10
2019-05-12T16:57:29.543Z,49.40
2019-05-12T17:00:02.252Z,50.10
2019-05-12T17:02:37.484Z,50.70
2019-05-12T17:04:53.956Z,50.70
2019-05-12T17:07:20.974Z,51.10
2019-05-12T17:09:47.168Z,51.30
2019-05-12T17:12:14.695Z,51.30
2019-05-12T17:14:47.959Z,51.10
2019-05-12T17:17:10.848Z,50.40
2019-05-12T17:19:37.350Z,51.30
2019-05-12T17:22:04.153Z,51.40
2019-05-12T17:24:30.419Z,51.50
2019-05-12T17:26:56.680Z,51.00
2019-05-12T17:29:24.293Z,51.40
2019-05-12T17:31:50.678Z,50.40
2019-05-12T17:34:16.843Z,50.00
2019-05-12T17:36:44.895Z,50.10
2019-05-12T17:39:11.039Z,50.00
2019-05-12T17:41:42.800Z,50.20
2019-05-12T17:44:05.374Z,50.60
2019-05-12T17:46:32.412Z,50.40
2019-05-12T17:48:59.411Z,50.00
2019-05-12T17:51:29.060Z,50.00
2019-05-12T17:53:54.079Z,50.50
2019-05-12T17:56:25.276Z,50.40
2019-05-12T17:58:48.346Z,51.30
2019-05-12T18:01:14.549Z,51.60
2019-05-12T18:03:48.676Z,51.60
2019-05-12T18:06:08.629Z,52.00
2019-05-12T18:08:36.466Z,52.00
2019-05-12T18:11:03.745Z,52.30
2019-05-12T18:13:30.343Z,53.30
2019-05-12T18:15:56.584Z,52.40
2019-05-12T18:18:32.455Z,53.20
2019-05-12T18:20:50.673Z,53.10
2019-05-12T18:23:19.903Z,53.40
2019-05-12T18:25:44.759Z,52.80
2019-05-12T18:28:10.954Z,52.50
2019-05-12T18:30:37.217Z,52.60
2019-05-12T18:33:07.025Z,53.40
2019-05-12T18:35:32.454Z,53.60
2019-05-12T18:37:58.655Z,53.70
2019-05-12T18:40:28.163Z,53.90
2019-05-12T18:42:54.586Z,54.20
2019-05-12T18:45:23.966Z,54.70
2019-05-12T18:47:50.353Z,55.80
2019-05-12T18:50:20.623Z,56.10
2019-05-12T18:52:46.358Z,57.50
2019-05-12T18:55:14.534Z,57.60
2019-05-12T18:57:47.947Z,58.00
2019-05-12T19:00:19.924Z,59.30
2019-05-12T19:02:46.875Z,59.80
2019-05-12T19:05:22.022Z,58.90
2019-05-12T19:07:43.719Z,59.20
2019-05-12T19:10:09.615Z,59.40
2019-05-12T19:12:36.928Z,60.00
2019-05-12T19:15:10.382Z,60.20
2019-05-12T19:17:34.505Z,60.30
2019-05-12T19:20:01.584Z,60.90
2019-05-12T19:22:27.873Z,61.80
2019-05-12T19:24:58.237Z,61.60
2019-05-12T19:27:23.923Z,62.00
2019-05-12T19:29:49.906Z,61.70
2019-05-12T19:32:16.009Z,61.60
2019-05-12T19:34:43.334Z,61.90
2019-05-12T19:37:10.537Z,62.10
2019-05-12T19:39:36.776Z,63.60
2019-05-12T19:42:03.767Z,63.70
2019-05-12T19:44:30.765Z,63.50
2019-05-12T19:46:57.102Z,63.20
2019-05-12T19:49:26.118Z,63.90
2019-05-12T19:51:51.303Z,63.30
2019-05-12T19:54:19.486Z,64.10
2019-05-12T19:56:45.419Z,64.50
2019-05-12T19:59:11.498Z,65.20
2019-05-12T20:01:37.604Z,65.30
2019-05-12T20:04:03.833Z,64.90
2019-05-12T20:06:30.138Z,65.00
2019-05-12T20:09:06.196Z,65.00
2019-05-12T20:11:29.387Z,65.20
2019-05-12T20:13:53.837Z,65.50
2019-05-12T20:16:21.899Z,64.70
2019-05-12T20:18:49.154Z,65.60
2019-05-12T20:21:15.574Z,65.50
2019-05-12T20:23:43.755Z,65.70
2019-05-12T20:26:09.932Z,66.30
2019-05-12T20:28:36.167Z,66.70
2019-05-12T20:31:05.872Z,66.90
2019-05-12T20:33:31.148Z,67.30
2019-05-12T20:35:57.333Z,67.50
2019-05-12T20:38:25.436Z,68.10
2019-05-12T20:40:53.848Z,68.00
2019-05-12T20:43:24.104Z,68.10
2019-05-12T20:45:47.558Z,68.60
2019-05-12T20:48:14.440Z,68.60
2019-05-12T20:50:40.749Z,68.80
2019-05-12T20:53:06.889Z,69.50
2019-05-12T20:55:39.463Z,69.50
2019-05-12T20:58:00.956Z,69.80
2019-05-12T21:00:27.234Z,70.00
2019-05-12T21:02:53.908Z,70.90
2019-05-12T21:05:20.431Z,70.90
2019-05-12T21:07:46.532Z,70.60
2019-05-12T21:10:14.677Z,70.80
2019-05-12T21:12:46.430Z,72.40
2019-05-12T21:15:16.332Z,73.40
2019-05-12T21:17:42.662Z,73.30
2019-05-12T21:20:11.809Z,74.10
2019-05-12T21:22:34.460Z,74.70
2019-05-12T21:25:00.538Z,75.00
2019-05-12T21:27:26.742Z,75.90
2019-05-12T21:29:54.148Z,76.00
2019-05-12T21:32:20.277Z,76.30
2019-05-12T21:34:46.320Z,76.00
2019-05-12T21:37:14.001Z,76.60
2019-05-12T21:39:45.606Z,76.50
2019-05-12T21:42:08.392Z,76.90
2019-05-12T21:44:34.602Z,76.80
2019-05-12T21:47:07.777Z,76.60
2019-05-12T21:49:28.697Z,76.60
2019-05-12T21:51:58.949Z,76.60
2019-05-12T21:54:29.443Z,76.90
2019-05-12T21:56:54.264Z,77.00
2019-05-12T21:59:20.475Z,77.70
2019-05-12T22:01:46.773Z,77.70
2019-05-12T22:04:14.299Z,77.90
2019-05-12T22:06:40.610Z,78.00
2019-05-12T22:09:07.032Z,78.30
2019-05-12T22:11:34.573Z,77.90
2019-05-12T22:14:00.936Z,78.40
2019-05-12T22:16:29.628Z,78.70
2019-05-12T22:18:59.261Z,79.50
2019-05-12T22:21:23.890Z,79.20
2019-05-12T22:23:51.252Z,79.60
2019-05-12T22:26:18.269Z,79.00
2019-05-12T22:28:48.741Z,79.00
2019-05-12T22:31:13.768Z,79.00
2019-05-12T22:33:40.866Z,78.60
2019-05-12T22:36:20.785Z,78.90
2019-05-12T22:38:37.087Z,79.10
2019-05-12T22:41:04.355Z,78.90
2019-05-12T22:43:40.798Z,79.00
2019-05-12T22:46:00.162Z,79.20
2019-05-12T22:48:29.784Z,79.50
2019-05-12T22:50:55.040Z,79.30
2019-05-12T22:53:25.909Z,79.20
2019-05-12T22:55:49.572Z,79.40
2019-05-12T22:58:21.219Z,79.80
2019-05-12T23:00:45.082Z,79.30
2019-05-12T23:03:12.467Z,79.40
2019-05-12T23:05:39.392Z,79.80
2019-05-12T23:08:06.802Z,79.60
2019-05-12T23:10:33.512Z,80.20
2019-05-12T23:13:01.864Z,79.90
2019-05-12T23:15:27.766Z,79.90
2019-05-12T23:17:53.898Z,80.70
2019-05-12T23:20:20.179Z,80.80
2019-05-12T23:22:46.445Z,80.70
2019-05-12T23:25:19.930Z,80.30
2019-05-12T23:27:40.686Z,80.90
2019-05-12T23:30:10.910Z,81.30
2019-05-12T23:32:35.888Z,81.80
2019-05-12T23:35:05.636Z,81.00
2019-05-12T23:37:38.398Z,81.10
2019-05-12T23:39:59.725Z,81.60
2019-05-12T23:42:25.799Z,82.20
2019-05-12T23:44:51.887Z,82.20
2019-05-12T23:47:18.101Z,82.10
2019-05-12T23:49:44.475Z,82.80
2019-05-12T23:52:10.870Z,82.30
2019-05-12T23:54:37.101Z,82.60
2019-05-12T23:57:03.926Z,82.20
2019-05-12T23:59:30.426Z,83.30
